Time;durP1;ratioP1;P1;durP2;ratioP2;P2;SDS_P1;SDS_P2;PMS_P1;PMS_P2;Temp;Humidity;BMP_temperature;BMP_pressure;BME280_temperature;BME280_humidity;BME280_pressure;Samples;Min_cycle;Max_cycle;Signal;HPM_P1;HPM_P2
2022/11/03 00:01:42;;;;;;;65.93;44.28;;;16.80;98.70;;;;;;5094268;28;20497;-70
2022/11/03 00:04:10;;;;;;;59.92;42.05;;;16.90;98.70;;;;;;5095814;28;20474;-70
2022/11/03 00:06:37;;;;;;;60.88;42.30;;;16.80;98.80;;;;;;5095467;28;20508;-69
2022/11/03 00:09:05;;;;;;;59.70;42.13;;;16.80;99.00;;;;;;5095658;28;20024;-70
2022/11/03 00:11:35;;;;;;;68.97;45.53;;;16.80;99.10;;;;;;5095753;28;20141;-69
2022/11/03 00:14:02;;;;;;;67.78;44.83;;;16.80;99.00;;;;;;5095778;28;20028;-70
2022/11/03 00:16:28;;;;;;;71.25;45.75;;;16.80;99.00;;;;;;5095611;28;20112;-69
2022/11/03 00:18:54;;;;;;;71.20;47.40;;;16.80;98.90;;;;;;5095602;28;20020;-70
2022/11/03 00:21:20;;;;;;;74.13;47.50;;;16.80;99.00;;;;;;5095573;28;20086;-70
2022/11/03 00:23:46;;;;;;;73.63;49.50;;;16.80;99.00;;;;;;5095570;28;20016;-70
2022/11/03 00:26:21;;;;;;;80.70;49.97;;;16.80;98.90;;;;;;5095770;28;20032;-70
2022/11/03 00:28:55;;;;;;;65.35;45.92;;;16.80;98.80;;;;;;5095445;28;20402;-69
2022/11/03 00:31:26;;;;;;;77.85;48.63;;;16.80;98.90;;;;;;5095342;28;20046;-69
2022/11/03 00:33:53;;;;;;;74.28;48.25;;;16.80;98.90;;;;;;5094554;28;20032;-70
2022/11/03 00:36:30;;;;;;;75.45;46.13;;;16.80;99.00;;;;;;5094139;28;20107;-70
2022/11/03 00:38:56;;;;;;;80.03;48.90;;;16.70;99.00;;;;;;5095406;28;20054;-70
2022/11/03 00:41:23;;;;;;;81.55;49.75;;;16.70;99.00;;;;;;5095192;28;20062;-69
2022/11/03 00:43:50;;;;;;;83.63;52.63;;;16.70;99.10;;;;;;5094965;28;20117;-69
2022/11/03 00:46:17;;;;;;;80.25;51.15;;;16.70;99.10;;;;;;5094997;28;20036;-69
2022/11/03 00:48:43;;;;;;;69.50;46.30;;;16.70;99.10;;;;;;5095273;28;20020;-70
2022/11/03 00:51:10;;;;;;;74.70;49.03;;;16.70;99.10;;;;;;5094990;28;20465;-70
2022/11/03 00:53:40;;;;;;;73.05;48.58;;;16.70;99.10;;;;;;5094957;28;20043;-69
2022/11/03 00:56:19;;;;;;;73.60;48.95;;;16.70;99.10;;;;;;5094951;28;20091;-69
2022/11/03 00:58:45;;;;;;;74.25;48.30;;;16.70;99.10;;;;;;5094957;28;20028;-69
2022/11/03 01:01:16;;;;;;;72.07;47.33;;;16.70;99.40;;;;;;5094777;28;20032;-69
2022/11/03 01:06:48;;;;;;;69.25;45.50;;;16.70;99.20;;;;;;5094938;28;20069;-69
2022/11/03 01:06:49;;;;;;;69.32;46.88;;;16.70;99.20;;;;;;5094312;28;20556;-70
2022/11/03 01:09:38;;;;;;;68.43;46.53;;;16.70;99.20;;;;;;5094564;28;20068;-70
2022/11/03 01:12:12;;;;;;;72.03;47.22;;;16.70;99.20;;;;;;5094700;28;20042;-69
2022/11/03 01:14:44;;;;;;;70.90;46.80;;;16.60;99.20;;;;;;5094553;28;20160;-70
2022/11/03 01:17:19;;;;;;;67.88;47.67;;;16.60;99.20;;;;;;5094527;28;20111;-70
2022/11/03 01:19:45;;;;;;;67.38;45.22;;;16.70;99.20;;;;;;5094282;28;20146;-73
2022/11/03 01:22:12;;;;;;;68.60;46.28;;;16.70;99.20;;;;;;5092953;28;20024;-70
2022/11/03 01:24:40;;;;;;;80.35;48.00;;;16.70;99.20;;;;;;5094483;28;20020;-69
2022/11/03 01:27:06;;;;;;;73.20;48.22;;;16.60;99.20;;;;;;5094082;28;20039;-69
2022/11/03 01:29:32;;;;;;;67.70;45.92;;;16.70;99.20;;;;;;5094429;28;20020;-69
2022/11/03 01:31:58;;;;;;;67.05;45.78;;;16.60;99.10;;;;;;5094093;28;20419;-70
2022/11/03 01:34:24;;;;;;;68.38;45.45;;;16.60;99.10;;;;;;5094095;28;20434;-70
2022/11/03 01:36:50;;;;;;;72.22;46.03;;;16.60;99.10;;;;;;5094247;28;20032;-70
2022/11/03 01:39:17;;;;;;;67.60;44.10;;;16.60;99.00;;;;;;5094112;28;20043;-70
2022/11/03 01:41:46;;;;;;;66.03;45.15;;;16.60;99.00;;;;;;5093762;28;20034;-70
2022/11/03 01:44:12;;;;;;;69.38;44.80;;;16.60;99.00;;;;;;5092806;28;20028;-69
2022/11/03 01:47:06;;;;;;;70.30;44.42;;;16.60;99.00;;;;;;5092849;28;20502;-69
2022/11/03 01:49:43;;;;;;;69.63;44.67;;;16.60;99.00;;;;;;5094000;28;20035;-69
2022/11/03 01:52:15;;;;;;;59.83;41.67;;;16.50;99.10;;;;;;5093626;28;20017;-70
2022/11/03 01:54:44;;;;;;;72.55;46.67;;;16.50;99.10;;;;;;5093751;28;20032;-69
2022/11/03 01:57:15;;;;;;;71.55;43.58;;;16.50;99.00;;;;;;5093751;28;20462;-70
2022/11/03 01:59:41;;;;;;;67.22;43.58;;;16.50;99.00;;;;;;5090506;28;20023;-70
2022/11/03 02:02:07;;;;;;;64.22;41.42;;;16.50;99.10;;;;;;5090682;28;20023;-70
2022/11/03 02:04:34;;;;;;;67.38;44.72;;;16.50;99.10;;;;;;5091856;28;20032;-69
2022/11/03 02:07:25;;;;;;;68.82;43.92;;;16.50;99.10;;;;;;5093308;28;20537;-70
2022/11/03 02:09:51;;;;;;;70.45;44.88;;;16.50;99.10;;;;;;5093256;28;20024;-70
2022/11/03 02:12:20;;;;;;;67.53;44.60;;;16.50;99.00;;;;;;5093185;28;20034;-70
2022/11/03 02:14:57;;;;;;;68.22;44.72;;;16.50;99.10;;;;;;5093032;28;20024;-70
2022/11/03 02:17:26;;;;;;;61.78;40.50;;;16.50;99.10;;;;;;5093163;28;20059;-71
2022/11/03 02:19:58;;;;;;;58.38;41.33;;;16.50;99.10;;;;;;5093532;28;20370;-70
2022/11/03 02:22:28;;;;;;;;;;;16.50;98.90;;;;;;5093200;28;20382;-69
2022/11/03 02:25:24;;;;;;;58.90;40.00;;;16.50;98.90;;;;;;5092985;28;19904;-70
2022/11/03 02:27:50;;;;;;;66.53;43.45;;;16.50;98.80;;;;;;5092937;28;20075;-70
2022/11/03 02:30:16;;;;;;;57.30;40.92;;;16.50;98.80;;;;;;5092793;28;20051;-67
2022/11/03 02:32:53;;;;;;;65.10;41.88;;;16.40;98.90;;;;;;5092753;28;20381;-68
2022/11/03 02:35:27;;;;;;;63.00;43.03;;;16.40;98.90;;;;;;5092683;28;20097;-67
2022/11/03 02:37:57;;;;;;;64.75;44.22;;;16.40;99.00;;;;;;5092942;28;20104;-68
2022/11/03 02:40:31;;;;;;;61.90;41.88;;;16.40;99.10;;;;;;5093077;28;20477;-70
2022/11/03 02:43:00;;;;;;;67.45;41.72;;;16.40;99.20;;;;;;5092685;28;20397;-68
2022/11/03 02:45:27;;;;;;;61.83;42.15;;;16.40;99.20;;;;;;5092869;28;20028;-69
2022/11/03 02:47:57;;;;;;;58.33;40.17;;;16.40;99.20;;;;;;5093021;28;20051;-68
2022/11/03 02:50:30;;;;;;;62.72;41.53;;;16.50;99.20;;;;;;5092704;28;20020;-68
2022/11/03 02:52:56;;;;;;;62.40;41.13;;;16.40;99.30;;;;;;5091445;28;20366;-67
2022/11/03 02:55:38;;;;;;;63.53;41.45;;;16.40;99.30;;;;;;5092482;28;20055;-68
2022/11/03 02:58:06;;;;;;;66.93;42.58;;;16.50;99.30;;;;;;5092654;28;20439;-67
2022/11/03 03:00:40;;;;;;;64.72;41.67;;;16.40;99.40;;;;;;5093153;28;20122;-68
2022/11/03 03:03:13;;;;;;;58.33;39.40;;;16.40;99.40;;;;;;5092812;28;20161;-70
2022/11/03 03:05:41;;;;;;;59.10;38.80;;;16.40;99.40;;;;;;5092670;28;20036;-68
2022/11/03 03:08:09;;;;;;;56.30;38.15;;;16.40;99.70;;;;;;5092558;28;20020;-68
2022/11/03 03:10:42;;;;;;;52.92;36.17;;;16.40;99.50;;;;;;5093019;28;20032;-67
2022/11/03 03:13:11;;;;;;;51.65;35.67;;;16.50;99.50;;;;;;5092754;28;20028;-68
2022/11/03 03:16:16;;;;;;;46.33;33.97;;;16.50;99.50;;;;;;5092682;28;20027;-71
2022/11/03 03:19:27;;;;;;;47.95;34.40;;;16.50;99.50;;;;;;5091587;28;20036;-67
2022/11/03 03:21:55;;;;;;;54.25;33.75;;;16.50;99.40;;;;;;5092740;28;20078;-69
2022/11/03 03:24:35;;;;;;;50.92;32.67;;;16.50;99.50;;;;;;5092809;28;20016;-69
2022/11/03 03:27:03;;;;;;;44.15;30.70;;;16.50;99.40;;;;;;5092645;28;20490;-69
2022/11/03 03:29:38;;;;;;;41.42;29.90;;;16.40;99.30;;;;;;5092825;28;20108;-70
2022/11/03 03:32:08;;;;;;;42.35;29.45;;;16.40;99.30;;;;;;5092462;28;20020;-69
2022/11/03 03:34:38;;;;;;;50.28;32.03;;;16.40;99.30;;;;;;5092545;28;20020;-70
2022/11/03 03:37:05;;;;;;;46.10;33.40;;;16.40;99.00;;;;;;5092490;28;20069;-68
2022/11/03 03:39:35;;;;;;;50.92;34.47;;;16.40;98.90;;;;;;5092404;28;20051;-68
2022/11/03 03:42:02;;;;;;;50.20;35.33;;;16.30;98.90;;;;;;5092539;28;20028;-68
2022/11/03 03:44:28;;;;;;;48.45;34.30;;;16.30;98.90;;;;;;5092341;28;20028;-68
2022/11/03 03:47:05;;;;;;;46.00;33.85;;;16.30;98.90;;;;;;5092697;28;20038;-68
2022/11/03 03:49:31;;;;;;;45.10;33.03;;;16.30;98.70;;;;;;5092496;28;20060;-69
2022/11/03 03:51:58;;;;;;;45.35;34.83;;;16.20;98.60;;;;;;5092395;28;20056;-69
2022/11/03 03:54:23;;;;;;;40.75;32.67;;;16.20;98.70;;;;;;5091943;28;20031;-69
2022/11/03 03:56:59;;;;;;;44.33;33.00;;;16.20;98.90;;;;;;5092400;28;20031;-69
2022/11/03 03:59:25;;;;;;;40.22;31.52;;;16.20;99.00;;;;;;5091307;28;20036;-69
2022/11/03 04:01:50;;;;;;;53.58;34.28;;;16.20;99.00;;;;;;5092334;28;20024;-68
2022/11/03 04:04:16;;;;;;;45.08;32.15;;;16.20;98.90;;;;;;5092451;28;20081;-68
2022/11/03 04:06:42;;;;;;;42.65;32.90;;;16.20;98.80;;;;;;5092012;28;20036;-68
2022/11/03 04:09:09;;;;;;;44.05;33.05;;;16.20;98.80;;;;;;5092998;28;20116;-68
2022/11/03 04:22:32;;;;;;;43.92;29.33;;;16.20;99.10;;;;;;5096128;28;20429;-69
2022/11/03 04:24:58;;;;;;;45.15;31.70;;;16.20;99.10;;;;;;5095592;28;20016;-69
2022/11/03 04:27:36;;;;;;;51.92;32.58;;;16.10;99.10;;;;;;5095507;28;20032;-68
2022/11/03 04:30:14;;;;;;;53.22;33.15;;;16.10;98.90;;;;;;5095606;28;20020;-68
2022/11/03 04:32:40;;;;;;;42.88;31.70;;;16.10;98.90;;;;;;5093953;28;20030;-69
2022/11/03 04:35:20;;;;;;;45.78;32.47;;;16.10;98.90;;;;;;5095381;28;20058;-68
2022/11/03 04:38:12;;;;;;;42.92;30.77;;;16.10;98.90;;;;;;5095134;28;20103;-69
2022/11/03 04:40:44;;;;;;;47.17;30.10;;;16.10;98.90;;;;;;5089704;28;20435;-68
2022/11/03 04:43:12;;;;;;;45.75;30.02;;;16.10;98.90;;;;;;5095199;28;20277;-68
2022/11/03 04:45:38;;;;;;;44.05;30.80;;;16.10;98.90;;;;;;5095115;28;20031;-68
2022/11/03 04:48:18;;;;;;;46.58;29.90;;;16.10;98.90;;;;;;5095330;28;20081;-69
2022/11/03 04:50:46;;;;;;;40.85;29.17;;;16.10;99.00;;;;;;5094955;28;20020;-68
2022/11/03 04:53:17;;;;;;;45.65;30.35;;;16.00;98.90;;;;;;5095111;28;20103;-69
2022/11/03 04:55:44;;;;;;;43.40;29.05;;;16.00;99.00;;;;;;5094783;28;20040;-68
2022/11/03 04:58:25;;;;;;;40.05;29.55;;;16.00;99.10;;;;;;5095220;28;20060;-68
2022/11/03 05:00:58;;;;;;;44.00;29.85;;;16.00;99.20;;;;;;5095146;28;20024;-68
2022/11/03 05:03:30;;;;;;;39.55;29.15;;;16.00;99.20;;;;;;5095002;28;20024;-68
2022/11/03 05:05:56;;;;;;;;;;;16.00;99.30;;;;;;5095187;28;20043;-68
2022/11/03 05:08:22;;;;;;;45.83;29.80;;;16.00;99.30;;;;;;5094900;28;19994;-69
2022/11/03 05:10:48;;;;;;;43.22;29.63;;;16.00;99.20;;;;;;5094609;28;20385;-68
2022/11/03 05:13:23;;;;;;;44.85;29.83;;;16.00;99.20;;;;;;5094866;28;20028;-69
2022/11/03 05:15:51;;;;;;;40.03;28.75;;;16.00;99.20;;;;;;5094585;28;20519;-69
2022/11/03 05:18:23;;;;;;;49.67;30.02;;;16.00;99.20;;;;;;5094512;28;20016;-69
2022/11/03 05:20:58;;;;;;;41.47;27.25;;;16.00;99.20;;;;;;5094481;28;20395;-68
2022/11/03 05:23:26;;;;;;;41.03;26.98;;;16.00;99.10;;;;;;5094367;28;20020;-68
2022/11/03 05:25:55;;;;;;;37.92;28.80;;;16.00;99.10;;;;;;5094501;28;20104;-68
2022/11/03 05:28:29;;;;;;;38.33;29.48;;;16.00;99.00;;;;;;5094333;28;20043;-68
2022/11/03 05:30:55;;;;;;;46.38;29.17;;;16.00;99.10;;;;;;5094204;28;20026;-68
2022/11/03 05:33:33;;;;;;;42.83;29.20;;;15.90;98.90;;;;;;5094303;28;20020;-69
2022/11/03 05:36:07;;;;;;;37.67;28.15;;;15.90;99.10;;;;;;5093962;28;20059;-68
2022/11/03 05:38:33;;;;;;;41.25;27.95;;;15.90;99.20;;;;;;5094122;28;20024;-68
2022/11/03 05:41:00;;;;;;;35.13;26.50;;;15.90;99.20;;;;;;5094285;28;20470;-69
2022/11/03 05:43:28;;;;;;;36.55;26.85;;;15.90;99.20;;;;;;5094413;28;20378;-68
2022/11/03 05:45:57;;;;;;;33.35;25.33;;;15.90;99.30;;;;;;5093858;28;20055;-68
2022/11/03 05:48:39;;;;;;;39.60;24.92;;;15.90;99.40;;;;;;5094212;28;20470;-68
2022/11/03 05:51:20;;;;;;;29.20;20.90;;;15.90;99.20;;;;;;5094172;28;20028;-68
2022/11/03 05:53:49;;;;;;;30.63;20.77;;;15.90;99.10;;;;;;5093902;28;20031;-69
2022/11/03 05:56:21;;;;;;;27.25;21.90;;;15.80;99.00;;;;;;5093896;28;20058;-69
2022/11/03 05:58:49;;;;;;;27.33;20.90;;;15.80;99.30;;;;;;5093859;28;20030;-68
2022/11/03 06:01:17;;;;;;;30.73;21.15;;;15.80;99.40;;;;;;5093467;28;20508;-68
2022/11/03 06:03:43;;;;;;;28.30;21.55;;;15.80;99.40;;;;;;5094017;28;20470;-68
2022/11/03 06:06:23;;;;;;;29.38;20.63;;;15.80;99.50;;;;;;5093231;28;20065;-68
2022/11/03 06:08:49;;;;;;;30.83;20.58;;;15.80;99.50;;;;;;5093789;28;20121;-69
2022/11/03 06:11:36;;;;;;;27.85;20.65;;;15.80;99.60;;;;;;5093704;28;20021;-68
2022/11/03 06:14:13;;;;;;;29.00;21.13;;;15.90;99.50;;;;;;5093353;28;20024;-68
2022/11/03 06:17:04;;;;;;;33.97;21.95;;;15.80;99.60;;;;;;5093472;28;20016;-69
2022/11/03 06:19:38;;;;;;;35.03;21.65;;;15.90;99.60;;;;;;5093202;28;20024;-68
2022/11/03 06:22:28;;;;;;;28.20;20.23;;;15.90;99.60;;;;;;5093516;28;20038;-69
2022/11/03 06:24:59;;;;;;;30.33;20.42;;;15.90;99.60;;;;;;5093423;28;20387;-69
2022/11/03 06:27:28;;;;;;;31.80;21.33;;;15.90;99.80;;;;;;5093083;28;20032;-69
2022/11/03 06:30:11;;;;;;;32.28;21.02;;;15.90;99.70;;;;;;5093149;28;20583;-69
2022/11/03 06:32:36;;;;;;;32.53;21.65;;;15.90;99.60;;;;;;5092912;28;20496;-68
2022/11/03 06:35:02;;;;;;;27.98;21.95;;;15.90;99.60;;;;;;5092916;28;20126;-69
2022/11/03 06:37:32;;;;;;;30.85;22.27;;;15.90;99.60;;;;;;5092927;28;20028;-69
2022/11/03 06:40:19;;;;;;;31.73;23.23;;;15.90;99.70;;;;;;5091581;28;20032;-68
2022/11/03 06:42:45;;;;;;;32.17;21.58;;;15.90;99.70;;;;;;5092572;28;20153;-69
2022/11/03 06:45:22;;;;;;;32.95;21.48;;;15.90;99.70;;;;;;5092740;28;20048;-69
2022/11/03 06:47:49;;;;;;;35.50;22.55;;;15.90;99.80;;;;;;5092476;28;20026;-68
2022/11/03 06:50:28;;;;;;;31.98;22.23;;;16.00;99.90;;;;;;5092530;28;20154;-68
2022/11/03 06:52:56;;;;;;;32.58;21.95;;;16.00;99.90;;;;;;5092870;28;20071;-69
2022/11/03 06:55:26;;;;;;;26.65;20.48;;;16.00;99.90;;;;;;5092833;28;20054;-69
2022/11/03 06:58:15;;;;;;;34.35;21.25;;;16.00;99.90;;;;;;5092931;28;20478;-68
2022/11/03 07:00:42;;;;;;;26.92;19.77;;;16.00;99.90;;;;;;5086169;28;20093;-69
2022/11/03 07:03:34;;;;;;;38.15;20.27;;;16.00;99.90;;;;;;5092824;28;20035;-68
2022/11/03 07:06:23;;;;;;;30.75;20.40;;;16.00;99.90;;;;;;5092698;28;20107;-68
2022/11/03 07:08:54;;;;;;;29.00;20.20;;;16.10;99.90;;;;;;5092939;28;20028;-68
2022/11/03 07:11:25;;;;;;;36.17;21.85;;;16.10;99.90;;;;;;5092511;28;20031;-68
2022/11/03 07:14:05;;;;;;;34.97;23.90;;;16.10;99.90;;;;;;5092287;28;20028;-75
2022/11/03 07:16:39;;;;;;;34.38;23.77;;;16.10;99.90;;;;;;5092190;28;20093;-68
2022/11/03 07:19:13;;;;;;;29.90;22.90;;;16.10;99.90;;;;;;5091972;28;20036;-74
2022/11/03 07:21:43;;;;;;;41.17;25.50;;;16.20;99.90;;;;;;5092329;28;20020;-69
2022/11/03 07:24:15;;;;;;;33.83;25.40;;;16.20;99.90;;;;;;5092546;28;20032;-69
2022/11/03 07:26:41;;;;;;;;;;;16.20;99.90;;;;;;5092883;28;20036;-68
2022/11/03 07:29:15;;;;;;;36.05;26.25;;;16.30;99.90;;;;;;5092126;28;19949;-69
2022/11/03 07:31:40;;;;;;;37.08;25.25;;;16.30;99.90;;;;;;5092181;28;20787;-68
2022/11/03 07:34:14;;;;;;;36.53;26.02;;;16.40;99.90;;;;;;5091211;28;20024;-69
2022/11/03 07:36:41;;;;;;;36.25;25.05;;;16.40;99.90;;;;;;5091455;28;20028;-74
2022/11/03 07:39:14;;;;;;;33.28;24.08;;;16.40;99.90;;;;;;5091625;28;20088;-74
2022/11/03 07:41:40;;;;;;;33.92;23.95;;;16.40;99.90;;;;;;5092018;28;20106;-71
2022/11/03 07:44:12;;;;;;;35.92;24.98;;;16.40;99.90;;;;;;5092887;28;20108;-73
2022/11/03 07:46:38;;;;;;;33.50;24.75;;;16.50;99.90;;;;;;5095760;28;20535;-70
2022/11/03 07:49:10;;;;;;;35.85;23.50;;;16.50;99.90;;;;;;5095845;28;20008;-68
2022/11/03 07:51:40;;;;;;;32.07;23.97;;;16.50;99.90;;;;;;5096045;28;20020;-69
2022/11/03 07:54:11;;;;;;;32.75;22.20;;;16.50;99.90;;;;;;5093245;28;20098;-70
2022/11/03 07:56:53;;;;;;;36.33;22.23;;;16.60;99.90;;;;;;5093405;28;20073;-69
2022/11/03 07:59:29;;;;;;;31.40;22.48;;;16.60;99.90;;;;;;5094894;28;20082;-73
2022/11/03 08:01:57;;;;;;;35.50;23.30;;;16.60;99.90;;;;;;5093274;28;20058;-69
2022/11/03 08:04:30;;;;;;;32.72;22.02;;;16.60;99.90;;;;;;5094267;28;20485;-68
2022/11/03 08:06:56;;;;;;;30.27;21.27;;;16.60;99.90;;;;;;5094490;28;20036;-70
2022/11/03 08:09:21;;;;;;;34.95;23.40;;;16.60;99.90;;;;;;5095029;28;20035;-68
2022/11/03 08:11:48;;;;;;;30.52;21.98;;;16.60;99.90;;;;;;5095274;28;20052;-69
2022/11/03 08:14:13;;;;;;;35.80;22.52;;;16.60;99.90;;;;;;5094888;28;20038;-69
2022/11/03 08:16:39;;;;;;;34.67;22.77;;;16.60;99.90;;;;;;5095026;28;20032;-70
2022/11/03 08:19:06;;;;;;;35.97;23.45;;;16.70;99.90;;;;;;5093825;28;20055;-71
2022/11/03 08:21:32;;;;;;;35.38;24.15;;;16.70;99.90;;;;;;5093270;28;20023;-67
2022/11/03 08:23:57;;;;;;;33.90;21.75;;;16.70;99.90;;;;;;5094205;28;20012;-72
2022/11/03 08:26:23;;;;;;;28.17;18.20;;;16.80;99.90;;;;;;5094647;28;20411;-73
2022/11/03 08:28:49;;;;;;;26.67;19.02;;;16.80;99.90;;;;;;5094667;28;20059;-71
2022/11/03 08:31:15;;;;;;;29.50;17.90;;;16.80;99.90;;;;;;5094130;28;20024;-74
2022/11/03 08:33:40;;;;;;;24.25;15.88;;;16.80;99.90;;;;;;5094911;28;20028;-68
2022/11/03 08:36:10;;;;;;;26.42;16.40;;;16.80;99.90;;;;;;5094752;28;20146;-69
2022/11/03 08:38:36;;;;;;;20.63;14.98;;;16.90;99.90;;;;;;5094777;28;20016;-69
2022/11/03 08:41:02;;;;;;;25.70;15.80;;;16.80;99.90;;;;;;5094811;28;20020;-69
2022/11/03 08:43:28;;;;;;;24.77;15.82;;;16.90;99.90;;;;;;5093302;28;20032;-68
2022/11/03 08:45:54;;;;;;;18.45;15.60;;;17.00;99.90;;;;;;5094844;28;20386;-67
2022/11/03 08:48:28;;;;;;;22.88;15.00;;;17.00;99.90;;;;;;5094936;28;20453;-68
2022/11/03 08:50:54;;;;;;;21.92;14.73;;;17.00;99.90;;;;;;5094727;28;20035;-69
2022/11/03 08:53:24;;;;;;;23.27;13.85;;;17.00;99.90;;;;;;5094335;28;20024;-69
2022/11/03 08:55:51;;;;;;;17.52;13.15;;;17.10;99.90;;;;;;5091790;28;20545;-75
2022/11/03 08:58:16;;;;;;;21.92;12.93;;;17.10;99.90;;;;;;5094696;28;20024;-68
2022/11/03 09:00:42;;;;;;;27.00;13.05;;;17.20;99.90;;;;;;5094433;28;20485;-72
2022/11/03 09:03:08;;;;;;;23.38;14.73;;;17.20;99.80;;;;;;5094735;28;20024;-69
2022/11/03 09:05:33;;;;;;;27.38;17.00;;;17.20;99.70;;;;;;5093205;28;20043;-68
2022/11/03 09:07:59;;;;;;;25.17;16.73;;;17.20;99.50;;;;;;5093956;28;20024;-68
2022/11/03 09:10:25;;;;;;;27.58;17.52;;;17.20;99.60;;;;;;5094123;28;20458;-69
2022/11/03 09:12:52;;;;;;;30.67;19.98;;;17.20;99.40;;;;;;5093637;28;20008;-73
2022/11/03 09:15:17;;;;;;;30.75;18.75;;;17.30;99.30;;;;;;5077591;28;20041;-68
2022/11/03 09:17:43;;;;;;;31.13;20.63;;;17.30;99.30;;;;;;5073910;28;20429;-69
2022/11/03 09:20:10;;;;;;;33.28;21.05;;;17.30;99.40;;;;;;5073941;28;20027;-69
2022/11/03 09:22:35;;;;;;;30.40;19.98;;;17.30;99.40;;;;;;5074577;28;20506;-69
2022/11/03 09:25:01;;;;;;;32.25;19.58;;;17.40;99.40;;;;;;5074293;28;20055;-69
2022/11/03 09:27:27;;;;;;;113.65;28.30;;;17.40;99.30;;;;;;5074066;28;20551;-69
2022/11/03 09:29:53;;;;;;;48.92;21.05;;;17.40;99.40;;;;;;5073959;28;20020;-69
2022/11/03 09:32:19;;;;;;;30.23;17.95;;;17.50;99.20;;;;;;5073989;28;20047;-69
2022/11/03 09:34:44;;;;;;;36.42;18.05;;;17.50;99.10;;;;;;5074070;28;20068;-70
2022/11/03 09:37:10;;;;;;;27.60;13.13;;;17.60;98.90;;;;;;5073823;28;20386;-69
2022/11/03 09:39:36;;;;;;;29.38;14.52;;;17.60;98.50;;;;;;5074089;28;20082;-69
2022/11/03 09:42:03;;;;;;;24.33;14.82;;;17.60;98.30;;;;;;5074013;28;20028;-71
2022/11/03 09:44:33;;;;;;;20.80;14.98;;;17.70;98.20;;;;;;5074018;28;20105;-67
2022/11/03 09:46:59;;;;;;;23.10;16.90;;;17.70;98.10;;;;;;5073751;28;20094;-67
2022/11/03 09:49:25;;;;;;;20.90;14.80;;;17.70;97.90;;;;;;5073797;28;20025;-68
2022/11/03 09:51:52;;;;;;;26.98;16.02;;;17.70;97.70;;;;;;5073693;28;20052;-68
2022/11/03 09:54:19;;;;;;;22.08;14.82;;;17.70;97.60;;;;;;5073456;28;20016;-69
2022/11/03 09:56:46;;;;;;;22.08;15.43;;;17.70;97.60;;;;;;5073457;28;20056;-69
2022/11/03 09:59:20;;;;;;;21.80;14.57;;;17.80;97.50;;;;;;5072127;28;20446;-68
2022/11/03 10:01:49;;;;;;;24.73;13.93;;;17.80;97.40;;;;;;5073729;28;20048;-68
2022/11/03 10:04:27;;;;;;;19.40;11.80;;;17.70;97.40;;;;;;5073656;28;20028;-68
2022/11/03 10:06:54;;;;;;;20.75;12.25;;;17.80;97.50;;;;;;5072710;28;20116;-68
2022/11/03 10:09:22;;;;;;;17.25;12.23;;;17.80;97.40;;;;;;5073361;28;20474;-68
2022/11/03 10:11:50;;;;;;;20.42;13.18;;;17.80;97.40;;;;;;5072743;28;20017;-69
2022/11/03 10:14:17;;;;;;;20.70;13.10;;;17.80;97.40;;;;;;5072796;28;20363;-69
2022/11/03 10:16:49;;;;;;;20.50;13.52;;;17.80;97.30;;;;;;5072887;28;20033;-69
2022/11/03 10:19:15;;;;;;;16.45;12.93;;;17.90;97.20;;;;;;5072964;28;20409;-69
2022/11/03 10:21:43;;;;;;;18.90;12.75;;;18.00;97.20;;;;;;5072574;28;20081;-69
2022/11/03 10:24:12;;;;;;;21.45;12.20;;;18.00;97.20;;;;;;5072742;28;20474;-69
2022/11/03 10:26:51;;;;;;;19.92;11.98;;;18.10;97.20;;;;;;5073087;28;20043;-69
2022/11/03 10:29:27;;;;;;;23.17;12.10;;;18.20;96.90;;;;;;5073028;28;20031;-70
2022/11/03 10:31:55;;;;;;;16.88;11.07;;;18.40;97.10;;;;;;5072959;28;20024;-69
2022/11/03 10:34:38;;;;;;;16.73;10.35;;;18.30;96.40;;;;;;5072892;28;20048;-69
2022/11/03 10:37:16;;;;;;;20.95;10.27;;;18.30;96.30;;;;;;5072887;28;20039;-69
2022/11/03 10:39:43;;;;;;;19.08;10.07;;;18.30;96.10;;;;;;5073064;28;20059;-69
2022/11/03 10:42:18;;;;;;;17.75;10.95;;;18.30;95.90;;;;;;5072872;28;20521;-69
2022/11/03 10:44:43;;;;;;;18.60;11.43;;;18.30;95.60;;;;;;5073036;28;20042;-69
2022/11/03 10:47:22;;;;;;;17.20;11.30;;;18.30;95.70;;;;;;5073168;28;20041;-69
2022/11/03 10:49:48;;;;;;;17.40;11.23;;;18.30;95.80;;;;;;5073065;28;20036;-69
2022/11/03 10:52:24;;;;;;;20.70;11.18;;;18.30;95.90;;;;;;5072992;28;20028;-69
2022/11/03 10:54:53;;;;;;;16.30;11.77;;;18.30;95.90;;;;;;5071378;28;20052;-69
2022/11/03 10:57:20;;;;;;;23.67;12.38;;;18.40;95.90;;;;;;5072932;28;20029;-69
2022/11/03 10:59:48;;;;;;;16.48;11.80;;;18.40;96.10;;;;;;5072820;28;20035;-69
2022/11/03 11:02:26;;;;;;;23.20;12.85;;;18.50;96.30;;;;;;5072859;28;20494;-69
2022/11/03 11:05:00;;;;;;;20.58;10.48;;;18.50;96.50;;;;;;5072722;28;20023;-69
2022/11/03 11:07:40;;;;;;;17.98;10.77;;;18.50;96.50;;;;;;5072695;28;20033;-69
2022/11/03 11:10:14;;;;;;;23.25;11.65;;;18.50;96.30;;;;;;5072920;28;20020;-69
2022/11/03 11:13:03;;;;;;;15.77;10.73;;;18.50;96.20;;;;;;5071666;28;20513;-69
2022/11/03 11:15:58;;;;;;;19.25;11.65;;;18.50;96.20;;;;;;5072421;28;20020;-68
2022/11/03 11:18:30;;;;;;;17.00;10.93;;;18.50;96.20;;;;;;5073439;28;20032;-69
2022/11/03 11:20:59;;;;;;;16.97;10.50;;;18.50;96.20;;;;;;5077155;28;20031;-69
2022/11/03 11:23:28;;;;;;;19.02;11.15;;;18.50;96.30;;;;;;5075252;28;20347;-70
2022/11/03 11:26:25;;;;;;;16.23;10.95;;;18.50;96.40;;;;;;5076123;28;20110;-70
2022/11/03 11:29:09;;;;;;;18.92;11.25;;;18.50;96.20;;;;;;5076784;28;20461;-69
2022/11/03 11:31:41;;;;;;;23.17;11.77;;;18.50;96.30;;;;;;5076546;28;20028;-70
2022/11/03 11:34:09;;;;;;;18.63;10.18;;;18.60;96.30;;;;;;5076472;28;20468;-70
2022/11/03 11:37:04;;;;;;;15.90;9.82;;;18.60;96.20;;;;;;5076517;28;20387;-69
2022/11/03 11:39:30;;;;;;;16.70;9.98;;;18.60;95.70;;;;;;5076550;28;20052;-70
2022/11/03 11:42:11;;;;;;;15.20;9.07;;;18.60;95.50;;;;;;5076183;28;20024;-70
2022/11/03 11:44:51;;;;;;;15.25;9.30;;;18.60;95.10;;;;;;5075681;28;20017;-70
2022/11/03 11:47:40;;;;;;;19.75;9.27;;;18.70;94.70;;;;;;5076285;28;20040;-70
2022/11/03 11:50:05;;;;;;;17.05;8.55;;;18.60;94.50;;;;;;5075484;28;20390;-70
2022/11/03 11:52:43;;;;;;;14.93;8.18;;;18.60;94.60;;;;;;5076135;28;20049;-69
2022/11/03 11:55:33;;;;;;;16.88;7.45;;;18.60;94.70;;;;;;5075282;28;20105;-70
2022/11/03 11:58:01;;;;;;;15.43;7.50;;;18.70;94.80;;;;;;5075883;28;20108;-70
2022/11/03 12:00:33;;;;;;;15.20;7.95;;;18.70;95.00;;;;;;5075834;28;20017;-70
2022/11/03 12:03:01;;;;;;;15.25;6.47;;;18.70;94.90;;;;;;5075707;28;20020;-70
2022/11/03 12:05:32;;;;;;;12.23;6.97;;;18.80;94.80;;;;;;5075359;28;20505;-69
2022/11/03 12:07:59;;;;;;;10.43;6.53;;;18.80;94.70;;;;;;5075626;28;20033;-69
2022/11/03 12:10:28;;;;;;;17.33;7.38;;;18.80;94.80;;;;;;5074265;28;20029;-70
2022/11/03 12:12:55;;;;;;;12.75;6.38;;;18.80;94.90;;;;;;5075660;28;20378;-70
2022/11/03 12:15:52;;;;;;;12.48;6.88;;;18.90;94.80;;;;;;5075631;28;20424;-69
2022/11/03 12:18:38;;;;;;;8.95;6.22;;;18.90;94.60;;;;;;5075683;28;20099;-71
2022/11/03 12:21:06;;;;;;;8.30;5.38;;;18.80;94.40;;;;;;5075573;28;20029;-71
2022/11/03 12:23:36;;;;;;;12.68;6.35;;;18.80;94.30;;;;;;5075563;28;20028;-70
2022/11/03 12:26:04;;;;;;;10.43;5.07;;;18.80;94.40;;;;;;5077167;28;20037;-71
2022/11/03 12:28:36;;;;;;;6.47;4.07;;;18.80;94.10;;;;;;5075223;28;20019;-71
2022/11/03 12:31:02;;;;;;;;;;;18.70;92.80;;;;;;5074966;28;20494;-70
2022/11/03 12:33:28;;;;;;;11.35;3.58;;;18.60;92.80;;;;;;5074363;28;19990;-70
2022/11/03 12:35:55;;;;;;;10.27;3.70;;;18.60;92.90;;;;;;5075169;28;20423;-71
2022/11/03 12:38:22;;;;;;;11.52;3.88;;;18.60;92.60;;;;;;5074945;28;20024;-71
2022/11/03 12:40:48;;;;;;;9.55;4.00;;;18.60;92.90;;;;;;5075195;28;20478;-71
2022/11/03 12:43:13;;;;;;;8.30;4.50;;;18.50;93.10;;;;;;5075098;28;20107;-71
2022/11/03 12:45:40;;;;;;;9.95;4.80;;;18.50;93.10;;;;;;5074919;28;20382;-70
2022/11/03 12:48:06;;;;;;;8.23;4.85;;;18.50;93.30;;;;;;5074939;28;20036;-70
2022/11/03 12:50:32;;;;;;;6.85;4.40;;;18.50;93.40;;;;;;5074694;28;20020;-71
2022/11/03 12:52:58;;;;;;;11.32;5.25;;;18.50;93.40;;;;;;5074958;28;20356;-70
2022/11/03 12:55:23;;;;;;;12.82;5.88;;;18.50;93.50;;;;;;5074732;28;20045;-71
2022/11/03 12:57:49;;;;;;;10.98;5.43;;;18.50;93.40;;;;;;5074752;28;20024;-71
2022/11/03 13:00:15;;;;;;;8.00;5.00;;;18.40;93.20;;;;;;5074955;28;20017;-71
2022/11/03 13:02:40;;;;;;;9.60;5.30;;;18.40;93.20;;;;;;5074872;28;20020;-70